sensor_id;sensor_type;location;lat;lon;timestamp;temperature;humidity
47520;DHT22;33252;48.122;11.538;2024-01-10T00:01:14;-6.40;99.90
47520;DHT22;33252;48.122;11.538;2024-01-10T00:03:39;-6.40;99.90
47520;DHT22;33252;48.122;11.538;2024-01-10T00:06:05;-6.30;99.90
47520;DHT22;33252;48.122;11.538;2024-01-10T00:08:31;-6.20;99.90
47520;DHT22;33252;48.122;11.538;2024-01-10T00:10:57;-6.20;99.90
47520;DHT22;33252;48.122;11.538;2024-01-10T00:13:22;-6.10;99.90
47520;DHT22;33252;48.122;11.538;2024-01-10T00:15:48;-6.10;99.90
47520;DHT22;33252;48.122;11.538;2024-01-10T00:18:14;-6.00;99.90
47520;DHT22;33252;48.122;11.538;2024-01-10T00:20:40;-5.90;99.90
47520;DHT22;33252;48.122;11.538;2024-01-10T00:23:06;-6.00;99.90
47520;DHT22;33252;48.122;11.538;2024-01-10T00:25:32;-6.00;99.90
47520;DHT22;33252;48.122;11.538;2024-01-10T00:27:57;-5.90;99.90
47520;DHT22;33252;48.122;11.538;2024-01-10T00:30:23;-5.90;99.90
47520;DHT22;33252;48.122;11.538;2024-01-10T00:32:49;-5.80;99.90
47520;DHT22;33252;48.122;11.538;2024-01-10T00:35:14;-5.80;99.90
47520;DHT22;33252;48.122;11.538;2024-01-10T00:37:40;-5.80;99.90
47520;DHT22;33252;48.122;11.538;2024-01-10T00:40:06;-5.80;99.90
47520;DHT22;33252;48.122;11.538;2024-01-10T00:42:31;-5.80;99.90
47520;DHT22;33252;48.122;11.538;2024-01-10T00:44:57;-5.90;99.90
47520;DHT22;33252;48.122;11.538;2024-01-10T00:47:22;-5.90;99.90
47520;DHT22;33252;48.122;11.538;2024-01-10T00:49:48;-6.00;99.90
47520;DHT22;33252;48.122;11.538;2024-01-10T00:52:13;-6.00;99.90
47520;DHT22;33252;48.122;11.538;2024-01-10T00:54:39;-5.90;99.90
47520;DHT22;33252;48.122;11.538;2024-01-10T00:57:04;-5.80;99.90
47520;DHT22;33252;48.122;11.538;2024-01-10T00:59:30;-5.80;99.90
47520;DHT22;33252;48.122;11.538;2024-01-10T01:01:55;-6.00;99.90
47520;DHT22;33252;48.122;11.538;2024-01-10T01:04:21;-5.90;99.90
47520;DHT22;33252;48.122;11.538;2024-01-10T01:06:46;-5.90;99.90
47520;DHT22;33252;48.122;11.538;2024-01-10T01:09:12;-6.00;99.90
47520;DHT22;33252;48.122;11.538;2024-01-10T01:11:40;-6.00;99.90
47520;DHT22;33252;48.122;11.538;2024-01-10T01:14:06;-6.00;99.90
47520;DHT22;33252;48.122;11.538;2024-01-10T01:16:33;-5.90;99.90
47520;DHT22;33252;48.122;11.538;2024-01-10T01:18:58;-6.00;99.90
47520;DHT22;33252;48.122;11.538;2024-01-10T01:21:24;-5.90;99.90
47520;DHT22;33252;48.122;11.538;2024-01-10T01:23:49;-5.90;99.90
47520;DHT22;33252;48.122;11.538;2024-01-10T01:26:15;-5.90;99.90
47520;DHT22;33252;48.122;11.538;2024-01-10T01:28:41;-6.10;99.90
47520;DHT22;33252;48.122;11.538;2024-01-10T01:31:06;-6.10;99.90
47520;DHT22;33252;48.122;11.538;2024-01-10T01:33:32;-6.10;99.90
47520;DHT22;33252;48.122;11.538;2024-01-10T01:35:57;-6.00;99.90
47520;DHT22;33252;48.122;11.538;2024-01-10T01:38:23;-6.10;99.90
47520;DHT22;33252;48.122;11.538;2024-01-10T01:40:49;-6.00;99.90
47520;DHT22;33252;48.122;11.538;2024-01-10T01:43:25;-6.00;99.90
47520;DHT22;33252;48.122;11.538;2024-01-10T01:45:52;-5.90;99.90
47520;DHT22;33252;48.122;11.538;2024-01-10T01:48:20;-5.80;99.90
47520;DHT22;33252;48.122;11.538;2024-01-10T01:50:46;-5.90;99.90
47520;DHT22;33252;48.122;11.538;2024-01-10T01:53:16;-5.90;99.90
47520;DHT22;33252;48.122;11.538;2024-01-10T01:55:43;-6.00;99.90
47520;DHT22;33252;48.122;11.538;2024-01-10T01:58:10;-6.00;99.90
47520;DHT22;33252;48.122;11.538;2024-01-10T02:00:36;-6.00;99.90
47520;DHT22;33252;48.122;11.538;2024-01-10T02:03:02;-6.10;99.90
47520;DHT22;33252;48.122;11.538;2024-01-10T02:05:29;-6.10;99.90
47520;DHT22;33252;48.122;11.538;2024-01-10T02:07:55;-6.10;99.90
47520;DHT22;33252;48.122;11.538;2024-01-10T02:10:21;-6.00;99.90
47520;DHT22;33252;48.122;11.538;2024-01-10T02:12:47;-6.10;99.90
47520;DHT22;33252;48.122;11.538;2024-01-10T02:15:14;-6.00;99.90
47520;DHT22;33252;48.122;11.538;2024-01-10T02:17:39;-6.10;99.90
47520;DHT22;33252;48.122;11.538;2024-01-10T02:20:13;-6.10;99.90
47520;DHT22;33252;48.122;11.538;2024-01-10T02:22:39;-6.20;99.90
47520;DHT22;33252;48.122;11.538;2024-01-10T02:25:08;-6.20;99.90
47520;DHT22;33252;48.122;11.538;2024-01-10T02:27:35;-6.20;99.90
47520;DHT22;33252;48.122;11.538;2024-01-10T02:30:03;-6.10;99.90
47520;DHT22;33252;48.122;11.538;2024-01-10T02:32:28;-6.00;99.90
47520;DHT22;33252;48.122;11.538;2024-01-10T02:34:54;-6.00;99.90
47520;DHT22;33252;48.122;11.538;2024-01-10T02:37:19;-6.10;99.90
47520;DHT22;33252;48.122;11.538;2024-01-10T02:39:45;-6.00;99.90
47520;DHT22;33252;48.122;11.538;2024-01-10T02:42:11;-6.00;99.90
47520;DHT22;33252;48.122;11.538;2024-01-10T02:44:36;-5.90;99.90
47520;DHT22;33252;48.122;11.538;2024-01-10T02:47:02;-5.90;99.90
47520;DHT22;33252;48.122;11.538;2024-01-10T02:49:27;-5.80;99.90
47520;DHT22;33252;48.122;11.538;2024-01-10T02:51:53;-5.80;99.90
47520;DHT22;33252;48.122;11.538;2024-01-10T02:54:18;-5.80;99.90
47520;DHT22;33252;48.122;11.538;2024-01-10T02:56:44;-5.90;99.90
47520;DHT22;33252;48.122;11.538;2024-01-10T02:59:09;-6.00;99.90
47520;DHT22;33252;48.122;11.538;2024-01-10T03:01:35;-6.00;99.90
47520;DHT22;33252;48.122;11.538;2024-01-10T03:04:00;-6.00;99.90
47520;DHT22;33252;48.122;11.538;2024-01-10T03:06:26;-6.00;99.90
47520;DHT22;33252;48.122;11.538;2024-01-10T03:08:51;-5.80;99.90
47520;DHT22;33252;48.122;11.538;2024-01-10T03:11:17;-5.80;99.90
47520;DHT22;33252;48.122;11.538;2024-01-10T03:13:46;-5.70;99.90
47520;DHT22;33252;48.122;11.538;2024-01-10T03:16:12;-5.90;99.90
47520;DHT22;33252;48.122;11.538;2024-01-10T03:18:38;-5.90;99.90
47520;DHT22;33252;48.122;11.538;2024-01-10T03:21:04;-5.80;99.90
47520;DHT22;33252;48.122;11.538;2024-01-10T03:23:29;-5.80;99.90
47520;DHT22;33252;48.122;11.538;2024-01-10T03:25:56;-5.80;99.90
47520;DHT22;33252;48.122;11.538;2024-01-10T03:28:22;-5.70;99.90
47520;DHT22;33252;48.122;11.538;2024-01-10T03:30:48;-5.80;99.90
47520;DHT22;33252;48.122;11.538;2024-01-10T03:33:13;-5.90;99.90
47520;DHT22;33252;48.122;11.538;2024-01-10T03:35:41;-5.90;99.90
47520;DHT22;33252;48.122;11.538;2024-01-10T03:38:06;-5.80;99.90
47520;DHT22;33252;48.122;11.538;2024-01-10T03:40:32;-5.90;99.90
47520;DHT22;33252;48.122;11.538;2024-01-10T03:42:57;-5.90;99.90
47520;DHT22;33252;48.122;11.538;2024-01-10T03:45:23;-5.80;99.90
47520;DHT22;33252;48.122;11.538;2024-01-10T03:47:49;-5.90;99.90
47520;DHT22;33252;48.122;11.538;2024-01-10T03:50:18;-5.90;99.90
47520;DHT22;33252;48.122;11.538;2024-01-10T03:52:44;-5.80;99.90
47520;DHT22;33252;48.122;11.538;2024-01-10T03:55:11;-5.80;99.90
47520;DHT22;33252;48.122;11.538;2024-01-10T03:57:38;-5.80;99.90
47520;DHT22;33252;48.122;11.538;2024-01-10T04:00:04;-5.80;99.90
47520;DHT22;33252;48.122;11.538;2024-01-10T04:02:31;-5.70;99.90
47520;DHT22;33252;48.122;11.538;2024-01-10T04:04:57;-5.80;99.90
47520;DHT22;33252;48.122;11.538;2024-01-10T04:07:23;-5.80;99.90
47520;DHT22;33252;48.122;11.538;2024-01-10T04:09:48;-5.80;99.90
47520;DHT22;33252;48.122;11.538;2024-01-10T04:12:14;-5.80;99.90
47520;DHT22;33252;48.122;11.538;2024-01-10T04:14:39;-5.70;99.90
47520;DHT22;33252;48.122;11.538;2024-01-10T04:17:05;-5.70;99.90
47520;DHT22;33252;48.122;11.538;2024-01-10T04:19:32;-5.80;99.90
47520;DHT22;33252;48.122;11.538;2024-01-10T04:21:58;-5.90;99.90
47520;DHT22;33252;48.122;11.538;2024-01-10T04:24:24;-6.00;99.90
47520;DHT22;33252;48.122;11.538;2024-01-10T04:26:50;-5.90;99.90
47520;DHT22;33252;48.122;11.538;2024-01-10T04:29:15;-5.90;99.90
47520;DHT22;33252;48.122;11.538;2024-01-10T04:31:41;-5.80;99.90
47520;DHT22;33252;48.122;11.538;2024-01-10T04:34:07;-5.90;99.90
47520;DHT22;33252;48.122;11.538;2024-01-10T04:36:32;-5.90;99.90
47520;DHT22;33252;48.122;11.538;2024-01-10T04:38:59;-5.90;99.90
47520;DHT22;33252;48.122;11.538;2024-01-10T04:41:25;-6.00;99.90
47520;DHT22;33252;48.122;11.538;2024-01-10T04:43:51;-6.00;99.90
47520;DHT22;33252;48.122;11.538;2024-01-10T04:46:16;-5.90;99.90
47520;DHT22;33252;48.122;11.538;2024-01-10T04:48:42;-5.90;99.90
47520;DHT22;33252;48.122;11.538;2024-01-10T04:51:08;-5.80;99.90
47520;DHT22;33252;48.122;11.538;2024-01-10T04:53:33;-5.90;99.90
47520;DHT22;33252;48.122;11.538;2024-01-10T04:55:59;-5.80;99.90
47520;DHT22;33252;48.122;11.538;2024-01-10T04:58:25;-5.80;99.90
47520;DHT22;33252;48.122;11.538;2024-01-10T05:00:50;-5.70;99.90
47520;DHT22;33252;48.122;11.538;2024-01-10T05:03:16;-5.70;99.90
47520;DHT22;33252;48.122;11.538;2024-01-10T05:05:41;-5.70;99.90
47520;DHT22;33252;48.122;11.538;2024-01-10T05:08:07;-5.60;99.90
47520;DHT22;33252;48.122;11.538;2024-01-10T05:10:32;-5.70;99.90
47520;DHT22;33252;48.122;11.538;2024-01-10T05:12:58;-5.70;99.90
47520;DHT22;33252;48.122;11.538;2024-01-10T05:15:23;-5.60;99.90
47520;DHT22;33252;48.122;11.538;2024-01-10T05:17:49;-5.80;99.90
47520;DHT22;33252;48.122;11.538;2024-01-10T05:20:15;-5.70;99.90
47520;DHT22;33252;48.122;11.538;2024-01-10T05:22:40;-5.70;99.90
47520;DHT22;33252;48.122;11.538;2024-01-10T05:25:06;-5.70;99.90
47520;DHT22;33252;48.122;11.538;2024-01-10T05:27:32;-5.70;99.90
47520;DHT22;33252;48.122;11.538;2024-01-10T05:29:57;-5.60;99.90
47520;DHT22;33252;48.122;11.538;2024-01-10T05:32:25;-5.60;99.90
47520;DHT22;33252;48.122;11.538;2024-01-10T05:34:50;-5.60;99.90
47520;DHT22;33252;48.122;11.538;2024-01-10T05:37:16;-5.60;99.90
47520;DHT22;33252;48.122;11.538;2024-01-10T05:39:41;-5.70;99.90
47520;DHT22;33252;48.122;11.538;2024-01-10T05:42:07;-5.70;99.90
47520;DHT22;33252;48.122;11.538;2024-01-10T05:44:33;-5.70;99.90
47520;DHT22;33252;48.122;11.538;2024-01-10T05:46:58;-5.60;99.90
47520;DHT22;33252;48.122;11.538;2024-01-10T05:49:26;-5.70;99.90
47520;DHT22;33252;48.122;11.538;2024-01-10T05:51:52;-5.70;99.90
47520;DHT22;33252;48.122;11.538;2024-01-10T05:54:17;-5.80;99.90
47520;DHT22;33252;48.122;11.538;2024-01-10T05:56:43;-5.80;99.90
47520;DHT22;33252;48.122;11.538;2024-01-10T05:59:09;-5.80;99.90
47520;DHT22;33252;48.122;11.538;2024-01-10T06:01:37;-5.80;99.90
47520;DHT22;33252;48.122;11.538;2024-01-10T06:04:04;-5.90;99.90
47520;DHT22;33252;48.122;11.538;2024-01-10T06:06:29;-5.80;99.90
47520;DHT22;33252;48.122;11.538;2024-01-10T06:08:55;-5.80;99.90
47520;DHT22;33252;48.122;11.538;2024-01-10T06:11:20;-5.90;99.90
47520;DHT22;33252;48.122;11.538;2024-01-10T06:13:46;-5.90;99.90
47520;DHT22;33252;48.122;11.538;2024-01-10T06:16:12;-5.90;99.90
47520;DHT22;33252;48.122;11.538;2024-01-10T06:18:39;-5.90;99.90
47520;DHT22;33252;48.122;11.538;2024-01-10T06:21:04;-5.90;99.90
47520;DHT22;33252;48.122;11.538;2024-01-10T06:23:30;-5.90;99.90
47520;DHT22;33252;48.122;11.538;2024-01-10T06:25:56;-5.80;99.90
47520;DHT22;33252;48.122;11.538;2024-01-10T06:28:21;-5.80;99.90
47520;DHT22;33252;48.122;11.538;2024-01-10T06:30:48;-5.80;99.90
47520;DHT22;33252;48.122;11.538;2024-01-10T06:33:14;-5.80;99.90
47520;DHT22;33252;48.122;11.538;2024-01-10T06:35:40;-5.80;99.90
47520;DHT22;33252;48.122;11.538;2024-01-10T06:38:06;-5.80;99.90
47520;DHT22;33252;48.122;11.538;2024-01-10T06:40:32;-5.80;99.90
47520;DHT22;33252;48.122;11.538;2024-01-10T06:42:57;-5.70;99.90
47520;DHT22;33252;48.122;11.538;2024-01-10T06:45:23;-5.70;99.90
47520;DHT22;33252;48.122;11.538;2024-01-10T06:47:48;-5.80;99.90
47520;DHT22;33252;48.122;11.538;2024-01-10T06:50:14;-5.80;99.90
47520;DHT22;33252;48.122;11.538;2024-01-10T06:52:39;-5.90;99.90
47520;DHT22;33252;48.122;11.538;2024-01-10T06:55:06;-5.80;99.90
47520;DHT22;33252;48.122;11.538;2024-01-10T06:57:33;-5.80;99.90
47520;DHT22;33252;48.122;11.538;2024-01-10T06:59:58;-6.10;99.90
47520;DHT22;33252;48.122;11.538;2024-01-10T07:02:24;-6.10;99.90
47520;DHT22;33252;48.122;11.538;2024-01-10T07:04:50;-6.10;99.90
47520;DHT22;33252;48.122;11.538;2024-01-10T07:07:15;-6.00;99.90
47520;DHT22;33252;48.122;11.538;2024-01-10T07:09:42;-6.00;99.90
47520;DHT22;33252;48.122;11.538;2024-01-10T07:12:08;-6.00;99.90
47520;DHT22;33252;48.122;11.538;2024-01-10T07:14:33;-6.10;99.90
47520;DHT22;33252;48.122;11.538;2024-01-10T07:16:59;-6.00;99.90
47520;DHT22;33252;48.122;11.538;2024-01-10T07:19:25;-6.10;99.90
47520;DHT22;33252;48.122;11.538;2024-01-10T07:21:50;-6.00;99.90
47520;DHT22;33252;48.122;11.538;2024-01-10T07:24:16;-6.00;99.90
47520;DHT22;33252;48.122;11.538;2024-01-10T07:26:41;-6.00;99.90
47520;DHT22;33252;48.122;11.538;2024-01-10T07:29:07;-6.00;99.90
47520;DHT22;33252;48.122;11.538;2024-01-10T07:31:35;-6.00;99.90
47520;DHT22;33252;48.122;11.538;2024-01-10T07:34:01;-6.00;99.90
47520;DHT22;33252;48.122;11.538;2024-01-10T07:36:27;-6.00;99.90
47520;DHT22;33252;48.122;11.538;2024-01-10T07:38:53;-5.90;99.90
47520;DHT22;33252;48.122;11.538;2024-01-10T07:41:18;-5.80;99.90
47520;DHT22;33252;48.122;11.538;2024-01-10T07:43:44;-5.80;99.90
47520;DHT22;33252;48.122;11.538;2024-01-10T07:46:09;-5.80;99.90
47520;DHT22;33252;48.122;11.538;2024-01-10T07:48:35;-5.80;99.90
47520;DHT22;33252;48.122;11.538;2024-01-10T07:51:01;-5.90;99.90
47520;DHT22;33252;48.122;11.538;2024-01-10T07:53:26;-5.90;99.90
47520;DHT22;33252;48.122;11.538;2024-01-10T07:55:52;-5.90;99.90
47520;DHT22;33252;48.122;11.538;2024-01-10T07:58:18;-5.80;99.90
47520;DHT22;33252;48.122;11.538;2024-01-10T08:00:43;-5.70;99.90
47520;DHT22;33252;48.122;11.538;2024-01-10T08:03:10;-5.70;99.90
47520;DHT22;33252;48.122;11.538;2024-01-10T08:05:36;-5.70;99.90
47520;DHT22;33252;48.122;11.538;2024-01-10T08:08:01;-5.70;99.90
47520;DHT22;33252;48.122;11.538;2024-01-10T08:10:27;-5.70;99.90
47520;DHT22;33252;48.122;11.538;2024-01-10T08:12:53;-5.70;99.90
47520;DHT22;33252;48.122;11.538;2024-01-10T08:15:18;-5.60;99.90
47520;DHT22;33252;48.122;11.538;2024-01-10T08:17:45;-5.50;99.90
47520;DHT22;33252;48.122;11.538;2024-01-10T08:20:10;-5.60;99.90
47520;DHT22;33252;48.122;11.538;2024-01-10T08:22:36;-5.50;99.90
47520;DHT22;33252;48.122;11.538;2024-01-10T08:25:04;-5.50;99.90
47520;DHT22;33252;48.122;11.538;2024-01-10T08:27:29;-5.50;99.90
47520;DHT22;33252;48.122;11.538;2024-01-10T08:29:55;-5.50;99.90
47520;DHT22;33252;48.122;11.538;2024-01-10T08:32:20;-5.50;99.90
47520;DHT22;33252;48.122;11.538;2024-01-10T08:34:47;-5.50;99.90
47520;DHT22;33252;48.122;11.538;2024-01-10T08:37:14;-5.40;99.90
47520;DHT22;33252;48.122;11.538;2024-01-10T08:39:40;-5.30;99.90
47520;DHT22;33252;48.122;11.538;2024-01-10T08:42:05;-5.30;99.90
47520;DHT22;33252;48.122;11.538;2024-01-10T08:44:31;-5.30;99.90
47520;DHT22;33252;48.122;11.538;2024-01-10T08:46:56;-5.30;99.90
47520;DHT22;33252;48.122;11.538;2024-01-10T08:49:22;-5.20;99.90
47520;DHT22;33252;48.122;11.538;2024-01-10T08:51:47;-5.10;99.90
47520;DHT22;33252;48.122;11.538;2024-01-10T08:54:13;-5.10;99.90
47520;DHT22;33252;48.122;11.538;2024-01-10T08:56:43;-5.00;99.90
47520;DHT22;33252;48.122;11.538;2024-01-10T08:59:10;-5.00;99.90
47520;DHT22;33252;48.122;11.538;2024-01-10T09:01:36;-5.00;99.90
47520;DHT22;33252;48.122;11.538;2024-01-10T09:04:04;-4.90;99.90
47520;DHT22;33252;48.122;11.538;2024-01-10T09:06:31;-4.80;99.90
47520;DHT22;33252;48.122;11.538;2024-01-10T09:08:56;-4.80;99.90
47520;DHT22;33252;48.122;11.538;2024-01-10T09:11:22;-4.70;99.90
47520;DHT22;33252;48.122;11.538;2024-01-10T09:13:47;-4.70;99.90
47520;DHT22;33252;48.122;11.538;2024-01-10T09:16:13;-4.70;99.90
47520;DHT22;33252;48.122;11.538;2024-01-10T09:18:39;-4.60;99.90
47520;DHT22;33252;48.122;11.538;2024-01-10T09:21:05;-4.60;99.90
47520;DHT22;33252;48.122;11.538;2024-01-10T09:23:30;-4.50;99.90
47520;DHT22;33252;48.122;11.538;2024-01-10T09:25:56;-4.50;99.90
47520;DHT22;33252;48.122;11.538;2024-01-10T09:28:22;-4.40;99.90
47520;DHT22;33252;48.122;11.538;2024-01-10T09:30:47;-4.30;99.90
47520;DHT22;33252;48.122;11.538;2024-01-10T09:33:13;-4.30;99.90
47520;DHT22;33252;48.122;11.538;2024-01-10T09:35:38;-4.20;99.90
47520;DHT22;33252;48.122;11.538;2024-01-10T09:38:04;-4.10;99.90
47520;DHT22;33252;48.122;11.538;2024-01-10T09:40:30;-4.10;99.90
47520;DHT22;33252;48.122;11.538;2024-01-10T09:42:56;-4.00;99.90
47520;DHT22;33252;48.122;11.538;2024-01-10T09:45:21;-4.10;99.90
47520;DHT22;33252;48.122;11.538;2024-01-10T09:47:56;-4.10;99.90
47520;DHT22;33252;48.122;11.538;2024-01-10T09:50:22;-4.10;99.90
47520;DHT22;33252;48.122;11.538;2024-01-10T09:52:50;-4.10;99.90
47520;DHT22;33252;48.122;11.538;2024-01-10T09:55:16;-4.00;99.90
47520;DHT22;33252;48.122;11.538;2024-01-10T09:57:42;-4.00;99.90
47520;DHT22;33252;48.122;11.538;2024-01-10T10:00:11;-3.90;99.90
47520;DHT22;33252;48.122;11.538;2024-01-10T10:02:38;-3.80;99.90
47520;DHT22;33252;48.122;11.538;2024-01-10T10:05:14;-3.80;99.90
47520;DHT22;33252;48.122;11.538;2024-01-10T10:07:50;-3.70;99.90
47520;DHT22;33252;48.122;11.538;2024-01-10T10:10:17;-3.80;99.90
47520;DHT22;33252;48.122;11.538;2024-01-10T10:12:49;-3.80;99.90
47520;DHT22;33252;48.122;11.538;2024-01-10T10:15:22;-3.90;99.90
47520;DHT22;33252;48.122;11.538;2024-01-10T10:17:49;-3.80;99.90
47520;DHT22;33252;48.122;11.538;2024-01-10T10:20:29;-3.80;99.90
47520;DHT22;33252;48.122;11.538;2024-01-10T10:23:05;-3.90;99.90
47520;DHT22;33252;48.122;11.538;2024-01-10T10:27:59;-3.70;99.90
47520;DHT22;33252;48.122;11.538;2024-01-10T10:30:25;-3.70;99.90
47520;DHT22;33252;48.122;11.538;2024-01-10T10:32:51;-3.70;99.90
47520;DHT22;33252;48.122;11.538;2024-01-10T10:35:18;-3.70;99.90
47520;DHT22;33252;48.122;11.538;2024-01-10T10:37:45;-3.70;99.90
47520;DHT22;33252;48.122;11.538;2024-01-10T10:40:11;-3.70;99.90
47520;DHT22;33252;48.122;11.538;2024-01-10T10:42:42;-3.50;99.90
47520;DHT22;33252;48.122;11.538;2024-01-10T10:45:09;-3.50;99.90
47520;DHT22;33252;48.122;11.538;2024-01-10T10:47:39;-3.50;99.90
47520;DHT22;33252;48.122;11.538;2024-01-10T10:50:12;-3.40;99.90
47520;DHT22;33252;48.122;11.538;2024-01-10T10:52:42;-3.40;99.90
47520;DHT22;33252;48.122;11.538;2024-01-10T10:55:11;-3.30;99.90
47520;DHT22;33252;48.122;11.538;2024-01-10T10:57:39;-3.40;99.90
47520;DHT22;33252;48.122;11.538;2024-01-10T11:00:06;-3.40;99.90
47520;DHT22;33252;48.122;11.538;2024-01-10T11:02:32;-3.40;99.90
47520;DHT22;33252;48.122;11.538;2024-01-10T11:04:59;-3.20;99.90
47520;DHT22;33252;48.122;11.538;2024-01-10T11:07:27;-3.20;99.90
47520;DHT22;33252;48.122;11.538;2024-01-10T11:09:53;-3.20;99.90
47520;DHT22;33252;48.122;11.538;2024-01-10T11:18:07;-3.10;99.90
47520;DHT22;33252;48.122;11.538;2024-01-10T11:23:38;-3.10;99.90
47520;DHT22;33252;48.122;11.538;2024-01-10T11:26:05;-3.00;99.90
47520;DHT22;33252;48.122;11.538;2024-01-10T11:28:32;-3.00;99.90
47520;DHT22;33252;48.122;11.538;2024-01-10T11:30:59;-3.10;99.90
47520;DHT22;33252;48.122;11.538;2024-01-10T11:33:30;-3.00;99.90
47520;DHT22;33252;48.122;11.538;2024-01-10T11:36:14;-3.00;99.90
47520;DHT22;33252;48.122;11.538;2024-01-10T11:41:33;-3.00;99.90
47520;DHT22;33252;48.122;11.538;2024-01-10T11:49:07;-2.90;99.90
47520;DHT22;33252;48.122;11.538;2024-01-10T11:51:34;-3.00;99.90
47520;DHT22;33252;48.122;11.538;2024-01-10T11:54:00;-2.80;99.90
47520;DHT22;33252;48.122;11.538;2024-01-10T11:56:41;-2.70;99.90
47520;DHT22;33252;48.122;11.538;2024-01-10T11:59:13;-2.60;99.90
47520;DHT22;33252;48.122;11.538;2024-01-10T12:01:41;-2.50;99.90
47520;DHT22;33252;48.122;11.538;2024-01-10T12:04:08;-2.60;99.90
47520;DHT22;33252;48.122;11.538;2024-01-10T12:06:35;-2.60;99.90
47520;DHT22;33252;48.122;11.538;2024-01-10T12:09:04;-2.50;99.90
47520;DHT22;33252;48.122;11.538;2024-01-10T12:11:34;-2.50;99.90
47520;DHT22;33252;48.122;11.538;2024-01-10T12:14:01;-2.50;99.90
47520;DHT22;33252;48.122;11.538;2024-01-10T12:16:27;-2.50;99.90
47520;DHT22;33252;48.122;11.538;2024-01-10T12:18:52;-2.40;99.90
47520;DHT22;33252;48.122;11.538;2024-01-10T12:21:18;-2.40;99.90
47520;DHT22;33252;48.122;11.538;2024-01-10T12:23:43;-2.40;99.90
47520;DHT22;33252;48.122;11.538;2024-01-10T12:26:10;-2.50;99.90
47520;DHT22;33252;48.122;11.538;2024-01-10T12:28:39;-2.40;99.90
47520;DHT22;33252;48.122;11.538;2024-01-10T12:31:06;-2.50;99.90
47520;DHT22;33252;48.122;11.538;2024-01-10T12:33:37;-2.50;99.90
47520;DHT22;33252;48.122;11.538;2024-01-10T12:36:09;-2.50;99.90
47520;DHT22;33252;48.122;11.538;2024-01-10T12:38:37;-2.50;99.90
47520;DHT22;33252;48.122;11.538;2024-01-10T12:41:04;-2.50;99.90
47520;DHT22;33252;48.122;11.538;2024-01-10T12:43:33;-2.60;99.90
47520;DHT22;33252;48.122;11.538;2024-01-10T12:46:05;-2.50;99.90
47520;DHT22;33252;48.122;11.538;2024-01-10T12:48:31;-2.50;99.90
47520;DHT22;33252;48.122;11.538;2024-01-10T12:50:57;-2.50;99.90
47520;DHT22;33252;48.122;11.538;2024-01-10T12:53:29;-2.60;99.90
47520;DHT22;33252;48.122;11.538;2024-01-10T12:55:56;-2.80;99.90
47520;DHT22;33252;48.122;11.538;2024-01-10T12:58:22;-2.70;99.90
47520;DHT22;33252;48.122;11.538;2024-01-10T13:00:48;-2.70;99.90
47520;DHT22;33252;48.122;11.538;2024-01-10T13:03:13;-2.60;99.90
47520;DHT22;33252;48.122;11.538;2024-01-10T13:05:39;-2.70;99.90
47520;DHT22;33252;48.122;11.538;2024-01-10T13:08:05;-2.80;99.90
47520;DHT22;33252;48.122;11.538;2024-01-10T13:10:32;-2.70;99.90
47520;DHT22;33252;48.122;11.538;2024-01-10T13:13:00;-2.70;99.90
47520;DHT22;33252;48.122;11.538;2024-01-10T13:15:26;-2.70;99.90
47520;DHT22;33252;48.122;11.538;2024-01-10T13:17:51;-2.70;99.90
47520;DHT22;33252;48.122;11.538;2024-01-10T13:20:17;-2.60;99.90
47520;DHT22;33252;48.122;11.538;2024-01-10T13:22:43;-2.40;99.90
47520;DHT22;33252;48.122;11.538;2024-01-10T13:25:08;-2.60;99.90
47520;DHT22;33252;48.122;11.538;2024-01-10T13:27:34;-2.60;99.90
47520;DHT22;33252;48.122;11.538;2024-01-10T13:29:59;-2.70;99.90
47520;DHT22;33252;48.122;11.538;2024-01-10T13:32:25;-2.50;99.90
47520;DHT22;33252;48.122;11.538;2024-01-10T13:34:51;-2.40;99.90
47520;DHT22;33252;48.122;11.538;2024-01-10T13:37:16;-2.40;99.90
47520;DHT22;33252;48.122;11.538;2024-01-10T13:39:42;-2.40;99.90
47520;DHT22;33252;48.122;11.538;2024-01-10T13:42:08;-2.40;99.90
47520;DHT22;33252;48.122;11.538;2024-01-10T13:44:36;-2.60;99.90
47520;DHT22;33252;48.122;11.538;2024-01-10T13:47:01;-2.50;99.90
47520;DHT22;33252;48.122;11.538;2024-01-10T13:49:29;-2.40;99.90
47520;DHT22;33252;48.122;11.538;2024-01-10T13:51:54;-2.50;99.90
47520;DHT22;33252;48.122;11.538;2024-01-10T13:54:20;-2.60;99.90
47520;DHT22;33252;48.122;11.538;2024-01-10T13:56:47;-2.60;99.90
47520;DHT22;33252;48.122;11.538;2024-01-10T13:59:12;-2.60;99.90
47520;DHT22;33252;48.122;11.538;2024-01-10T14:01:38;-2.60;99.90
47520;DHT22;33252;48.122;11.538;2024-01-10T14:04:05;-2.70;99.90
47520;DHT22;33252;48.122;11.538;2024-01-10T14:06:31;-2.70;99.90
47520;DHT22;33252;48.122;11.538;2024-01-10T14:08:56;-2.70;99.90
47520;DHT22;33252;48.122;11.538;2024-01-10T14:11:23;-2.80;99.90
47520;DHT22;33252;48.122;11.538;2024-01-10T14:13:49;-2.60;99.90
47520;DHT22;33252;48.122;11.538;2024-01-10T14:16:15;-2.60;99.90
47520;DHT22;33252;48.122;11.538;2024-01-10T14:18:40;-2.60;99.90
47520;DHT22;33252;48.122;11.538;2024-01-10T14:21:06;-2.80;99.90
47520;DHT22;33252;48.122;11.538;2024-01-10T14:23:32;-2.70;99.90
47520;DHT22;33252;48.122;11.538;2024-01-10T14:26:00;-2.90;99.90
47520;DHT22;33252;48.122;11.538;2024-01-10T14:28:25;-2.90;99.90
47520;DHT22;33252;48.122;11.538;2024-01-10T14:30:51;-2.80;99.90
47520;DHT22;33252;48.122;11.538;2024-01-10T14:33:17;-2.90;99.90
47520;DHT22;33252;48.122;11.538;2024-01-10T14:35:42;-2.90;99.90
47520;DHT22;33252;48.122;11.538;2024-01-10T14:38:08;-3.10;99.90
47520;DHT22;33252;48.122;11.538;2024-01-10T14:40:33;-3.20;99.90
47520;DHT22;33252;48.122;11.538;2024-01-10T14:42:59;-3.20;99.90
47520;DHT22;33252;48.122;11.538;2024-01-10T14:45:24;-3.20;99.90
47520;DHT22;33252;48.122;11.538;2024-01-10T14:47:50;-3.20;99.90
47520;DHT22;33252;48.122;11.538;2024-01-10T14:50:16;-3.30;99.90
47520;DHT22;33252;48.122;11.538;2024-01-10T14:52:42;-3.20;99.90
47520;DHT22;33252;48.122;11.538;2024-01-10T14:55:07;-3.30;99.90
47520;DHT22;33252;48.122;11.538;2024-01-10T14:57:33;-3.30;99.90
47520;DHT22;33252;48.122;11.538;2024-01-10T14:59:59;-3.50;99.90
47520;DHT22;33252;48.122;11.538;2024-01-10T15:02:25;-3.40;99.90
47520;DHT22;33252;48.122;11.538;2024-01-10T15:04:50;-3.50;99.90
47520;DHT22;33252;48.122;11.538;2024-01-10T15:07:16;-3.50;99.90
47520;DHT22;33252;48.122;11.538;2024-01-10T15:09:43;-3.50;99.90
47520;DHT22;33252;48.122;11.538;2024-01-10T15:12:09;-3.60;99.90
47520;DHT22;33252;48.122;11.538;2024-01-10T15:14:35;-3.60;99.90
47520;DHT22;33252;48.122;11.538;2024-01-10T15:17:04;-3.70;99.90
47520;DHT22;33252;48.122;11.538;2024-01-10T15:19:33;-3.70;99.90
47520;DHT22;33252;48.122;11.538;2024-01-10T15:21:59;-3.80;99.90
47520;DHT22;33252;48.122;11.538;2024-01-10T15:24:25;-3.80;99.90
47520;DHT22;33252;48.122;11.538;2024-01-10T15:26:51;-3.70;99.90
47520;DHT22;33252;48.122;11.538;2024-01-10T15:29:17;-3.90;99.90